Time;durP1;ratioP1;P1;durP2;ratioP2;P2;SDS_P1;SDS_P2;PMS_P1;PMS_P2;Temp;Humidity;BMP_temperature;BMP_pressure;BME280_temperature;BME280_humidity;BME280_pressure;Samples;Min_cycle;Max_cycle;Signal;HPM_P1;HPM_P2
2022/11/01 00:01:58;;;;;;;50.03;27.58;;;13.30;99.90;;;;;;5037722;28;20249;-95
2022/11/01 00:04:24;;;;;;;44.50;25.92;;;13.30;99.90;;;;;;5036553;28;20181;-95
2022/11/01 00:06:50;;;;;;;46.83;26.42;;;13.30;99.90;;;;;;5037722;28;20316;-95
2022/11/01 00:09:20;;;;;;;54.42;26.50;;;13.20;99.90;;;;;;5037606;28;20174;-94
2022/11/01 00:11:46;;;;;;;45.83;26.20;;;13.20;99.90;;;;;;5036610;28;20178;-93
2022/11/01 00:14:17;;;;;;;49.47;26.73;;;13.20;99.90;;;;;;5036145;28;20182;-94
2022/11/01 00:16:43;;;;;;;41.72;25.30;;;13.20;99.90;;;;;;5037264;28;20206;-95
2022/11/01 00:19:09;;;;;;;49.75;27.48;;;13.20;99.90;;;;;;5037611;28;20531;-94
2022/11/01 00:21:36;;;;;;;44.05;25.15;;;13.20;99.90;;;;;;5036244;28;20178;-94
2022/11/01 00:24:01;;;;;;;47.70;26.55;;;13.20;99.90;;;;;;5036205;28;20182;-94
2022/11/01 00:26:27;;;;;;;49.75;25.65;;;13.20;99.90;;;;;;5036357;28;20174;-95
2022/11/01 00:28:54;;;;;;;48.33;26.70;;;13.20;99.90;;;;;;5035936;28;20264;-95
2022/11/01 00:31:24;;;;;;;47.33;24.92;;;13.20;99.90;;;;;;5036210;28;20217;-94
2022/11/01 00:33:49;;;;;;;36.83;24.85;;;13.10;99.90;;;;;;5036167;28;20198;-94
2022/11/01 00:36:15;;;;;;;48.75;26.42;;;13.10;99.90;;;;;;5035784;28;20264;-91
2022/11/01 00:38:41;;;;;;;45.72;26.35;;;13.10;99.90;;;;;;5035822;28;20171;-92
2022/11/01 00:41:19;;;;;;;50.08;27.83;;;13.10;99.90;;;;;;5035870;28;20209;-94
2022/11/01 00:43:45;;;;;;;50.30;26.45;;;13.10;99.90;;;;;;5035293;28;20208;-94
2022/11/01 00:46:11;;;;;;;46.95;25.27;;;13.10;99.90;;;;;;5035882;28;20194;-95
2022/11/01 00:48:36;;;;;;;45.30;25.17;;;12.90;99.90;;;;;;5035757;28;20225;-95
2022/11/01 00:51:04;;;;;;;41.50;24.83;;;12.90;99.90;;;;;;5036717;28;20174;-95
2022/11/01 00:53:30;;;;;;;40.30;24.73;;;12.90;99.90;;;;;;5035623;28;20189;-95
2022/11/01 00:56:00;;;;;;;47.83;26.02;;;12.80;99.90;;;;;;5036765;28;20206;-94
2022/11/01 00:58:25;;;;;;;48.47;25.35;;;12.80;99.90;;;;;;5035924;28;20257;-95
2022/11/01 01:00:51;;;;;;;43.88;24.73;;;12.70;99.90;;;;;;5035598;28;20265;-94
2022/11/01 01:03:17;;;;;;;44.92;25.33;;;12.80;99.90;;;;;;5035586;28;20179;-94
2022/11/01 01:05:42;;;;;;;42.15;25.30;;;12.70;99.90;;;;;;5035436;28;20228;-93
2022/11/01 01:08:09;;;;;;;49.25;25.95;;;12.70;99.90;;;;;;5036688;28;20624;-93
2022/11/01 01:10:35;;;;;;;48.78;26.35;;;12.80;99.90;;;;;;5035545;28;20232;-94
2022/11/01 01:13:00;;;;;;;45.22;26.70;;;12.80;99.90;;;;;;5035085;28;20228;-94
2022/11/01 01:15:26;;;;;;;47.05;25.65;;;12.80;99.90;;;;;;5035221;28;20232;-95
2022/11/01 01:17:52;;;;;;;44.95;26.40;;;12.80;99.90;;;;;;5035242;28;20194;-92
2022/11/01 01:20:20;;;;;;;48.97;25.30;;;12.70;99.90;;;;;;5036375;28;20163;-94
2022/11/01 01:22:45;;;;;;;43.75;23.38;;;12.70;99.90;;;;;;5036132;28;20174;-91
2022/11/01 01:25:11;;;;;;;42.10;24.60;;;12.80;99.90;;;;;;5035039;28;20174;-93
2022/11/01 01:27:37;;;;;;;44.40;25.52;;;12.80;99.90;;;;;;5034788;28;20178;-94
2022/11/01 01:30:08;;;;;;;43.95;25.02;;;12.60;99.90;;;;;;5035087;28;20221;-94
2022/11/01 01:32:34;;;;;;;42.35;23.58;;;12.70;99.90;;;;;;5035014;28;20180;-94
2022/11/01 01:35:01;;;;;;;47.72;25.40;;;12.60;99.90;;;;;;5034847;28;20186;-95
2022/11/01 01:37:26;;;;;;;46.45;25.33;;;12.70;99.90;;;;;;5034579;28;20214;-94
2022/11/01 01:39:53;;;;;;;42.13;24.27;;;12.60;99.90;;;;;;5034772;28;20221;-93
2022/11/01 01:42:30;;;;;;;45.38;25.88;;;12.70;99.90;;;;;;5034709;28;20265;-92
2022/11/01 01:44:56;;;;;;;49.28;26.63;;;12.60;99.90;;;;;;5034421;28;20225;-93
2022/11/01 01:47:29;;;;;;;44.47;26.23;;;12.70;99.90;;;;;;5034613;28;20185;-93
2022/11/01 01:50:00;;;;;;;47.58;25.65;;;12.60;99.90;;;;;;5035738;28;20212;-91
2022/11/01 01:52:32;;;;;;;47.03;26.33;;;12.60;99.90;;;;;;5035398;28;20194;-92
2022/11/01 01:55:01;;;;;;;50.22;28.17;;;12.70;99.90;;;;;;5034585;28;20216;-93
2022/11/01 01:57:27;;;;;;;54.25;28.85;;;12.70;99.90;;;;;;5033297;28;20264;-92
2022/11/01 01:59:52;;;;;;;54.65;28.40;;;12.80;99.90;;;;;;5035141;28;20183;-92
2022/11/01 02:02:19;;;;;;;53.50;28.58;;;12.80;99.90;;;;;;5035178;28;20174;-91
2022/11/01 02:04:54;;;;;;;44.22;27.58;;;12.80;99.90;;;;;;5034859;28;20645;-93
2022/11/01 02:07:19;;;;;;;53.45;27.80;;;12.80;99.90;;;;;;5035230;28;20160;-92
2022/11/01 02:09:46;;;;;;;50.83;29.38;;;12.80;99.90;;;;;;5033535;28;20589;-92
2022/11/01 02:12:12;;;;;;;51.75;29.15;;;12.80;99.90;;;;;;5035577;28;20166;-93
2022/11/01 02:14:41;;;;;;;49.13;28.60;;;12.80;99.90;;;;;;5034578;28;20297;-94
2022/11/01 02:17:31;;;;;;;52.20;29.05;;;12.80;99.90;;;;;;5034989;28;20206;-92
2022/11/01 02:20:36;;;;;;;50.00;27.65;;;12.80;99.90;;;;;;5033683;28;20179;-93
2022/11/01 02:23:13;;;;;;;55.90;28.40;;;12.70;99.90;;;;;;5034960;28;20178;-91
2022/11/01 02:26:03;;;;;;;48.45;28.05;;;12.70;99.90;;;;;;5035241;28;20185;-93
2022/11/01 02:28:50;;;;;;;48.00;28.33;;;12.80;99.90;;;;;;5035073;28;20175;-88
2022/11/01 02:31:39;;;;;;;52.17;27.35;;;12.70;99.90;;;;;;5034202;28;20269;-92
2022/11/01 02:34:34;;;;;;;46.55;26.90;;;12.70;99.90;;;;;;5033853;28;20174;-92
2022/11/01 02:37:14;;;;;;;49.00;27.75;;;12.70;99.90;;;;;;5035061;28;20209;-94
2022/11/01 02:39:46;;;;;;;47.42;25.83;;;12.60;99.90;;;;;;5035219;28;20171;-89
2022/11/01 02:42:36;;;;;;;51.63;27.27;;;12.70;99.90;;;;;;5033799;28;20193;-91
2022/11/01 02:45:09;;;;;;;40.25;25.52;;;12.70;99.90;;;;;;5033687;28;20226;-93
2022/11/01 02:47:37;;;;;;;49.60;24.80;;;12.60;99.90;;;;;;5033872;28;20206;-93
2022/11/01 02:52:39;;;;;;;49.20;26.60;;;12.70;99.90;;;;;;5144765;23;20243;-92
2022/11/01 02:55:28;;;;;;;44.25;25.77;;;12.60;99.90;;;;;;5013487;28;20265;-89
2022/11/01 02:58:00;;;;;;;46.25;26.50;;;12.60;99.90;;;;;;5014339;28;20580;-92
2022/11/01 03:00:32;;;;;;;45.60;26.70;;;12.60;99.90;;;;;;5014585;28;20160;-91
2022/11/01 03:03:22;;;;;;;48.08;26.42;;;12.60;99.90;;;;;;5014316;28;20250;-91
2022/11/01 03:05:59;;;;;;;41.72;24.80;;;12.60;99.90;;;;;;5014208;28;20172;-89
2022/11/01 03:08:48;;;;;;;43.00;25.05;;;12.60;99.90;;;;;;5013250;28;20185;-90
2022/11/01 03:11:17;;;;;;;49.20;27.35;;;12.60;99.90;;;;;;5014204;28;20172;-90
2022/11/01 03:14:07;;;;;;;47.38;28.52;;;12.60;99.90;;;;;;5013188;28;20629;-92
2022/11/01 03:16:35;;;;;;;52.15;29.08;;;12.60;99.90;;;;;;5013721;28;20207;-93
2022/11/01 03:19:14;;;;;;;48.00;27.45;;;12.60;99.90;;;;;;5013413;28;20190;-89
2022/11/01 03:21:45;;;;;;;48.50;27.88;;;12.60;99.90;;;;;;5015602;28;20170;-90
2022/11/01 03:24:17;;;;;;;44.40;26.85;;;12.60;99.90;;;;;;5018849;28;20163;-91
2022/11/01 03:26:48;;;;;;;47.53;28.60;;;12.60;99.90;;;;;;5018469;28;20674;-88
2022/11/01 03:29:15;;;;;;;48.17;27.48;;;12.60;99.90;;;;;;5017052;28;20176;-91
2022/11/01 03:31:43;;;;;;;46.20;27.58;;;12.60;99.90;;;;;;5016864;28;20182;-91
2022/11/01 03:34:15;;;;;;;42.95;26.42;;;12.60;99.90;;;;;;5016487;28;20193;-91
2022/11/01 03:36:51;;;;;;;42.95;26.85;;;12.50;99.90;;;;;;5016470;28;20222;-89
2022/11/01 03:39:31;;;;;;;44.33;26.88;;;12.50;99.90;;;;;;5017420;28;20171;-91
2022/11/01 03:42:04;;;;;;;43.03;26.00;;;12.60;99.90;;;;;;5018324;28;20175;-91
2022/11/01 03:44:37;;;;;;;42.72;25.98;;;12.50;99.90;;;;;;5018176;28;20169;-89
2022/11/01 03:47:03;;;;;;;44.00;26.92;;;12.60;99.90;;;;;;5016793;28;20175;-89
2022/11/01 03:49:29;;;;;;;43.30;25.92;;;12.50;99.90;;;;;;5017221;28;20614;-90
2022/11/01 03:51:54;;;;;;;43.20;25.23;;;12.60;99.90;;;;;;5038708;28;20243;-91
2022/11/01 03:54:28;;;;;;;37.90;25.23;;;12.50;99.90;;;;;;5057550;28;20261;-91
2022/11/01 03:56:54;;;;;;;40.00;24.88;;;12.50;99.90;;;;;;5057573;28;20201;-91
2022/11/01 03:59:29;;;;;;;39.67;25.38;;;12.50;99.90;;;;;;5056584;28;20185;-90
2022/11/01 04:01:54;;;;;;;40.20;25.30;;;12.50;99.90;;;;;;5057664;28;20219;-91
2022/11/01 04:04:21;;;;;;;42.05;25.27;;;12.50;99.90;;;;;;5057538;28;20174;-92
2022/11/01 04:06:47;;;;;;;39.10;25.90;;;12.50;99.90;;;;;;5056166;28;20178;-91
2022/11/01 04:09:13;;;;;;;42.17;23.95;;;12.50;99.90;;;;;;5056655;28;20193;-92
2022/11/01 04:11:38;;;;;;;40.08;23.95;;;12.50;99.90;;;;;;5057421;28;20173;-92
2022/11/01 04:22:16;;;;;;;39.65;24.55;;;12.50;99.90;;;;;;5043147;28;20194;-92
2022/11/01 04:24:45;;;;;;;39.50;24.95;;;12.50;99.90;;;;;;5036126;28;20193;-90
2022/11/01 04:27:11;;;;;;;37.45;24.70;;;12.50;99.90;;;;;;5036083;28;20637;-92
2022/11/01 04:29:36;;;;;;;37.50;25.30;;;12.50;99.90;;;;;;5035985;28;20177;-90
2022/11/01 04:32:02;;;;;;;39.03;24.10;;;12.60;99.90;;;;;;5036029;28;20175;-92
2022/11/01 04:34:43;;;;;;;35.72;24.35;;;12.50;99.90;;;;;;5036110;28;20189;-91
2022/11/01 04:37:09;;;;;;;37.88;23.40;;;12.50;99.90;;;;;;5035682;28;20294;-92
2022/11/01 04:39:34;;;;;;;45.45;25.05;;;12.60;99.90;;;;;;5036142;28;20190;-92
2022/11/01 04:42:00;;;;;;;35.28;24.73;;;12.50;99.90;;;;;;5036876;28;20190;-89
2022/11/01 04:44:26;;;;;;;37.58;23.63;;;12.50;99.90;;;;;;5036716;28;20269;-91
2022/11/01 04:46:52;;;;;;;35.92;24.67;;;12.50;99.90;;;;;;5036786;28;20170;-92
2022/11/01 04:49:17;;;;;;;35.78;24.42;;;12.50;99.90;;;;;;5036812;28;20183;-92
2022/11/01 04:51:43;;;;;;;37.47;24.65;;;12.50;99.90;;;;;;5044708;28;20233;-92
2022/11/01 04:54:09;;;;;;;33.15;22.17;;;12.60;99.90;;;;;;5055777;28;20600;-92
2022/11/01 04:56:34;;;;;;;38.55;24.50;;;12.60;99.90;;;;;;5056537;28;20217;-93
2022/11/01 04:59:00;;;;;;;39.33;24.73;;;12.50;99.90;;;;;;5056562;28;20174;-93
2022/11/01 05:01:25;;;;;;;40.10;25.05;;;12.50;99.90;;;;;;5055421;28;20188;-93
2022/11/01 05:03:51;;;;;;;37.15;23.75;;;12.50;99.90;;;;;;5055234;28;20174;-90
2022/11/01 05:06:17;;;;;;;38.28;24.05;;;12.50;99.90;;;;;;5056300;28;20224;-92
2022/11/01 05:08:43;;;;;;;39.00;23.30;;;12.60;99.90;;;;;;5055190;28;20550;-92
2022/11/01 05:11:08;;;;;;;37.60;24.33;;;12.50;99.90;;;;;;5056350;28;20232;-91
2022/11/01 05:13:36;;;;;;;39.67;24.67;;;12.60;99.90;;;;;;5055272;28;20178;-91
2022/11/01 05:16:02;;;;;;;37.47;24.15;;;12.60;99.90;;;;;;5056279;28;20198;-92
2022/11/01 05:18:28;;;;;;;39.00;25.08;;;12.60;99.90;;;;;;5055019;28;20631;-91
2022/11/01 05:20:55;;;;;;;41.97;23.77;;;12.60;99.90;;;;;;5055185;28;20181;-92
2022/11/01 05:23:21;;;;;;;38.80;22.65;;;12.60;99.90;;;;;;5055005;28;20523;-92
2022/11/01 05:25:47;;;;;;;39.10;24.77;;;12.60;99.90;;;;;;5054976;28;20177;-91
2022/11/01 05:28:13;;;;;;;36.80;22.83;;;12.60;99.90;;;;;;5054658;28;20190;-93
2022/11/01 05:30:40;;;;;;;35.72;23.83;;;12.60;99.90;;;;;;5056020;28;20174;-90
2022/11/01 05:33:10;;;;;;;36.20;23.10;;;12.60;99.90;;;;;;5054681;28;20189;-92
2022/11/01 05:35:36;;;;;;;37.65;24.70;;;12.60;99.90;;;;;;5054684;28;20185;-92
2022/11/01 05:38:03;;;;;;;37.22;21.42;;;12.60;99.90;;;;;;5054438;28;20178;-92
2022/11/01 05:40:29;;;;;;;38.03;23.02;;;12.60;99.90;;;;;;5054618;28;20188;-93
2022/11/01 05:42:55;;;;;;;38.25;23.70;;;12.60;99.90;;;;;;5034694;28;20225;-93
2022/11/01 05:45:22;;;;;;;36.92;23.45;;;12.60;99.90;;;;;;5015839;28;20179;-91
2022/11/01 05:47:48;;;;;;;39.40;22.35;;;12.60;99.90;;;;;;5014950;28;20202;-92
2022/11/01 05:50:15;;;;;;;36.28;23.08;;;12.60;99.90;;;;;;5014845;28;20175;-92
2022/11/01 05:52:41;;;;;;;35.95;22.13;;;12.60;99.90;;;;;;5015890;28;20230;-92
2022/11/01 05:55:15;;;;;;;29.55;21.20;;;12.60;99.90;;;;;;5014813;28;20178;-92
2022/11/01 05:57:41;;;;;;;33.30;20.88;;;12.60;99.90;;;;;;5014677;28;20553;-93
2022/11/01 06:00:07;;;;;;;33.75;21.92;;;12.60;99.90;;;;;;5014889;28;20239;-92
2022/11/01 06:02:33;;;;;;;33.63;22.27;;;12.60;99.90;;;;;;5014565;28;20519;-92
2022/11/01 06:05:01;;;;;;;33.83;23.20;;;12.60;99.90;;;;;;5014873;28;20183;-92
2022/11/01 06:07:26;;;;;;;33.13;22.35;;;12.60;99.90;;;;;;5014256;28;20218;-91
2022/11/01 06:09:52;;;;;;;37.08;21.92;;;12.60;99.90;;;;;;5015679;28;20171;-92
2022/11/01 06:12:18;;;;;;;33.47;22.38;;;12.60;99.90;;;;;;5028210;28;20192;-90
2022/11/01 06:14:46;;;;;;;35.05;22.15;;;12.70;99.90;;;;;;5054044;28;20173;-91
2022/11/01 06:17:12;;;;;;;33.58;21.27;;;12.60;99.90;;;;;;5055103;28;20210;-92
2022/11/01 06:19:38;;;;;;;32.90;21.55;;;12.60;99.90;;;;;;5054230;28;20219;-91
2022/11/01 06:22:03;;;;;;;32.40;20.67;;;12.60;99.90;;;;;;5054088;28;20897;-92
2022/11/01 06:24:34;;;;;;;39.45;20.55;;;12.60;99.90;;;;;;5054492;28;20169;-94
2022/11/01 06:27:00;;;;;;;34.70;19.50;;;12.70;99.90;;;;;;5052464;28;20191;-91
2022/11/01 06:29:26;;;;;;;33.95;19.02;;;12.70;99.90;;;;;;5033929;28;20680;-92
2022/11/01 06:31:51;;;;;;;29.30;18.35;;;12.70;99.90;;;;;;5034221;28;20509;-92
2022/11/01 06:34:24;;;;;;;29.45;18.63;;;12.70;99.90;;;;;;5034093;28;20193;-92
2022/11/01 06:36:50;;;;;;;25.73;17.58;;;12.80;99.90;;;;;;5033787;28;20210;-92
2022/11/01 06:39:16;;;;;;;29.33;18.60;;;12.80;99.90;;;;;;5033444;28;20225;-93
2022/11/01 06:41:42;;;;;;;34.25;18.52;;;12.80;99.90;;;;;;5034386;28;20192;-91
2022/11/01 06:44:08;;;;;;;31.40;19.52;;;12.80;99.90;;;;;;5039601;28;20584;-92
2022/11/01 06:46:34;;;;;;;26.52;17.27;;;12.90;99.90;;;;;;5033987;28;20265;-92
2022/11/01 06:49:00;;;;;;;29.92;17.65;;;12.80;99.90;;;;;;5035034;28;20221;-93
2022/11/01 06:51:26;;;;;;;32.33;18.40;;;12.80;99.90;;;;;;5033679;28;20225;-92
2022/11/01 06:53:51;;;;;;;28.38;17.45;;;12.80;99.90;;;;;;5033609;28;20185;-92
2022/11/01 06:56:17;;;;;;;35.83;18.48;;;12.80;99.90;;;;;;5034037;28;20210;-92
2022/11/01 06:58:43;;;;;;;23.98;16.08;;;12.80;99.90;;;;;;5046308;28;20612;-91
2022/11/01 07:01:08;;;;;;;27.88;15.85;;;12.80;99.90;;;;;;5056992;28;20277;-92
2022/11/01 07:03:34;;;;;;;24.35;14.57;;;12.80;99.90;;;;;;5056800;28;20196;-91
2022/11/01 07:06:00;;;;;;;26.00;14.90;;;12.90;99.90;;;;;;5057649;28;20173;-91
2022/11/01 07:08:25;;;;;;;26.15;15.20;;;12.90;99.90;;;;;;5056945;28;20201;-91
2022/11/01 07:10:51;;;;;;;28.77;14.65;;;12.90;99.90;;;;;;5057939;28;20631;-91
2022/11/01 07:13:16;;;;;;;25.33;15.40;;;12.90;99.90;;;;;;5041007;28;20695;-90
2022/11/01 07:15:42;;;;;;;22.23;14.25;;;13.00;99.90;;;;;;5037681;28;20190;-91
2022/11/01 07:18:08;;;;;;;26.27;13.63;;;13.00;99.90;;;;;;5041948;28;20269;-91
2022/11/01 07:20:40;;;;;;;21.40;14.02;;;13.10;99.90;;;;;;5056608;28;20178;-92
2022/11/01 07:23:09;;;;;;;22.05;13.13;;;13.10;99.90;;;;;;5056131;28;20181;-90
2022/11/01 07:25:35;;;;;;;24.05;13.38;;;13.20;99.90;;;;;;5055953;28;20169;-90
2022/11/01 07:28:01;;;;;;;16.67;11.90;;;13.30;99.90;;;;;;5051179;28;20590;-91
2022/11/01 07:30:27;;;;;;;18.02;11.30;;;13.30;99.90;;;;;;5035948;28;20175;-90
2022/11/01 07:33:01;;;;;;;18.58;11.60;;;13.40;99.90;;;;;;5036120;28;20269;-90
2022/11/01 07:35:27;;;;;;;18.65;10.13;;;13.50;99.90;;;;;;5035904;28;20516;-88
2022/11/01 07:37:56;;;;;;;18.90;10.60;;;13.50;99.90;;;;;;5034900;28;20175;-90
2022/11/01 07:40:26;;;;;;;19.13;10.80;;;13.60;99.90;;;;;;5035986;28;20605;-91
2022/11/01 07:42:57;;;;;;;18.35;10.63;;;13.60;99.90;;;;;;5035720;28;20182;-90
2022/11/01 07:45:24;;;;;;;16.83;10.35;;;13.60;99.90;;;;;;5046425;28;20185;-89
2022/11/01 07:47:50;;;;;;;18.02;10.43;;;13.70;99.90;;;;;;5036004;28;20174;-90
2022/11/01 07:50:16;;;;;;;16.25;9.88;;;13.70;99.90;;;;;;5035823;28;20182;-90
2022/11/01 07:52:42;;;;;;;16.98;10.77;;;13.80;99.90;;;;;;5034613;28;20351;-91
2022/11/01 07:55:08;;;;;;;16.98;9.95;;;13.80;99.90;;;;;;5045546;28;20208;-93
2022/11/01 07:57:38;;;;;;;16.25;9.85;;;13.90;99.90;;;;;;5056009;28;20217;-92
2022/11/01 08:00:04;;;;;;;16.25;9.70;;;13.90;99.90;;;;;;5056195;28;20269;-92
2022/11/01 08:02:30;;;;;;;16.30;9.07;;;13.90;99.90;;;;;;5056145;28;20262;-91
2022/11/01 08:04:56;;;;;;;14.65;9.18;;;14.00;99.90;;;;;;5056728;28;20205;-91
2022/11/01 08:07:22;;;;;;;13.07;8.68;;;14.00;99.90;;;;;;5054636;28;20182;-92
2022/11/01 08:09:48;;;;;;;13.55;8.65;;;14.00;99.90;;;;;;5055327;28;20571;-92
2022/11/01 08:12:13;;;;;;;14.10;8.35;;;14.00;99.90;;;;;;5047935;28;20265;-92
2022/11/01 08:14:39;;;;;;;14.85;7.97;;;14.00;99.90;;;;;;5044026;28;20177;-91
2022/11/01 08:17:04;;;;;;;16.48;8.68;;;14.00;99.90;;;;;;5035645;28;20579;-90
2022/11/01 08:19:30;;;;;;;13.30;7.10;;;14.00;99.90;;;;;;5036551;28;20185;-92
2022/11/01 08:21:57;;;;;;;15.20;7.70;;;14.00;99.90;;;;;;5035448;28;20178;-92
2022/11/01 08:24:23;;;;;;;13.98;7.05;;;14.10;99.90;;;;;;5035385;28;20179;-92
2022/11/01 08:26:48;;;;;;;14.75;7.20;;;14.10;99.90;;;;;;5035402;28;20186;-91
2022/11/01 08:29:14;;;;;;;14.73;6.63;;;14.20;99.90;;;;;;5045753;28;20186;-90
2022/11/01 08:31:40;;;;;;;9.63;5.85;;;14.30;99.90;;;;;;5056570;28;20652;-93
2022/11/01 08:34:06;;;;;;;8.82;5.70;;;14.40;99.90;;;;;;5056214;28;20166;-92
2022/11/01 08:36:33;;;;;;;12.52;5.32;;;14.50;99.90;;;;;;5055936;28;20255;-89
2022/11/01 08:38:59;;;;;;;12.80;5.65;;;14.60;99.90;;;;;;5055285;28;20554;-89
2022/11/01 08:41:27;;;;;;;11.18;5.05;;;14.60;99.90;;;;;;5056024;28;20178;-91
2022/11/01 08:43:53;;;;;;;12.18;4.88;;;14.80;99.90;;;;;;5052331;28;20173;-91
2022/11/01 08:46:19;;;;;;;8.55;4.95;;;14.90;99.90;;;;;;5054716;28;20180;-92
2022/11/01 08:48:46;;;;;;;10.23;5.25;;;14.90;99.90;;;;;;5055887;28;20249;-92
2022/11/01 08:51:12;;;;;;;10.82;4.72;;;15.00;99.90;;;;;;5055639;28;20559;-92
2022/11/01 08:53:38;;;;;;;11.48;4.80;;;15.10;99.90;;;;;;5055909;28;20178;-92
2022/11/01 08:56:04;;;;;;;8.23;4.95;;;15.10;99.90;;;;;;5054371;28;20210;-89
2022/11/01 08:58:30;;;;;;;9.57;4.28;;;15.20;99.90;;;;;;5054488;28;20194;-90
2022/11/01 09:00:55;;;;;;;8.48;4.47;;;15.30;99.90;;;;;;5054760;28;20635;-93
2022/11/01 09:03:21;;;;;;;10.15;4.60;;;15.30;99.90;;;;;;5055489;28;20210;-94
2022/11/01 09:05:47;;;;;;;11.32;4.45;;;15.40;99.90;;;;;;5037124;28;20189;-92
2022/11/01 09:08:13;;;;;;;8.82;4.28;;;15.40;99.90;;;;;;5034767;28;20229;-92
2022/11/01 09:10:38;;;;;;;7.93;4.28;;;15.50;99.90;;;;;;5034813;28;20178;-93
2022/11/01 09:13:04;;;;;;;15.57;4.97;;;15.50;99.90;;;;;;5034661;28;20194;-90
2022/11/01 09:15:30;;;;;;;15.23;4.63;;;15.50;99.90;;;;;;5034200;28;20523;-93
2022/11/01 09:17:55;;;;;;;9.20;4.15;;;15.60;99.90;;;;;;5034381;28;20170;-92
2022/11/01 09:20:22;;;;;;;10.77;4.32;;;15.50;99.90;;;;;;5035025;28;20182;-92
2022/11/01 09:22:52;;;;;;;7.47;3.78;;;15.50;99.90;;;;;;5034054;28;20680;-88
2022/11/01 09:25:18;;;;;;;8.75;3.90;;;15.60;99.90;;;;;;5034276;28;20202;-94
2022/11/01 09:27:43;;;;;;;8.88;3.75;;;15.60;99.90;;;;;;5035206;28;20178;-94
2022/11/01 09:30:09;;;;;;;8.75;4.15;;;15.60;99.90;;;;;;5035131;28;20513;-91
2022/11/01 09:32:35;;;;;;;7.13;4.15;;;15.70;99.90;;;;;;5033745;28;20272;-93
2022/11/01 09:35:01;;;;;;;16.10;4.25;;;15.70;99.90;;;;;;5035225;28;20545;-91
2022/11/01 09:37:27;;;;;;;8.88;4.15;;;15.80;99.90;;;;;;5033834;28;20297;-89
2022/11/01 09:39:52;;;;;;;15.07;4.50;;;15.80;99.90;;;;;;5033284;28;20309;-89
2022/11/01 09:42:33;;;;;;;6.85;3.65;;;16.00;99.90;;;;;;5049276;28;20174;-90
2022/11/01 09:45:06;;;;;;;11.18;4.07;;;16.00;99.90;;;;;;5017335;28;20182;-91
2022/11/01 09:47:34;;;;;;;8.13;3.80;;;16.00;99.90;;;;;;5033452;28;20196;-92
2022/11/01 09:50:25;;;;;;;13.07;4.15;;;16.00;99.90;;;;;;5034044;28;20210;-91
2022/11/01 09:52:53;;;;;;;14.85;3.90;;;16.10;99.90;;;;;;5034193;28;20241;-90
2022/11/01 09:55:32;;;;;;;9.07;3.83;;;16.10;99.90;;;;;;5046231;28;20262;-90
2022/11/01 09:58:22;;;;;;;12.18;4.25;;;16.00;99.90;;;;;;5053055;28;20192;-89
2022/11/01 10:01:25;;;;;;;5.78;3.80;;;16.10;99.90;;;;;;5054462;28;20198;-88
2022/11/01 10:04:19;;;;;;;8.68;3.67;;;16.10;99.90;;;;;;5039335;28;20566;-91
2022/11/01 10:07:06;;;;;;;6.70;3.67;;;16.10;99.90;;;;;;5053867;28;20170;-89
2022/11/01 10:09:56;;;;;;;9.48;3.60;;;16.20;99.90;;;;;;5053504;28;20169;-91
2022/11/01 10:12:37;;;;;;;11.77;3.65;;;16.30;99.90;;;;;;5047113;28;20178;-93
2022/11/01 10:15:21;;;;;;;12.57;3.70;;;16.50;99.90;;;;;;5045139;28;20182;-93
2022/11/01 10:17:52;;;;;;;7.90;3.88;;;16.70;99.90;;;;;;5031077;28;20210;-95
2022/11/01 10:20:21;;;;;;;7.28;3.38;;;16.90;99.90;;;;;;5030960;28;20320;-92
2022/11/01 10:22:49;;;;;;;4.75;3.53;;;17.00;99.90;;;;;;5033139;28;20174;-94
2022/11/01 10:25:24;;;;;;;8.00;3.47;;;17.00;99.90;;;;;;5046194;28;20190;-90
2022/11/01 10:28:05;;;;;;;10.73;4.10;;;17.10;99.90;;;;;;5043468;28;20194;-89
2022/11/01 10:30:45;;;;;;;6.53;3.15;;;17.00;99.90;;;;;;5025878;28;20183;-94
2022/11/01 10:33:29;;;;;;;10.07;3.42;;;16.90;99.90;;;;;;5014535;28;20214;-93
2022/11/01 10:36:02;;;;;;;8.18;3.60;;;16.90;99.90;;;;;;5031178;28;20209;-93
2022/11/01 10:38:49;;;;;;;7.53;3.15;;;16.90;99.90;;;;;;5034235;28;20526;-94
2022/11/01 10:41:30;;;;;;;5.38;3.25;;;16.80;99.90;;;;;;5033293;28;20167;-92
2022/11/01 10:44:01;;;;;;;10.50;3.20;;;16.80;99.90;;;;;;5037881;28;20185;-92
2022/11/01 10:46:32;;;;;;;10.57;3.20;;;16.80;99.90;;;;;;5052929;28;20600;-90
2022/11/01 10:49:03;;;;;;;9.02;3.15;;;16.80;99.90;;;;;;5053265;28;20178;-94
2022/11/01 10:51:32;;;;;;;6.80;3.42;;;16.70;99.90;;;;;;5053031;28;20706;-94
2022/11/01 10:54:04;;;;;;;7.20;3.15;;;16.70;99.90;;;;;;5052919;28;20194;-95
2022/11/01 10:56:36;;;;;;;7.20;3.30;;;16.70;99.90;;;;;;5054550;28;20205;-94
2022/11/01 10:59:13;;;;;;;7.60;3.30;;;16.80;99.90;;;;;;5053296;28;20174;-96
2022/11/01 11:01:41;;;;;;;6.28;3.50;;;16.80;99.90;;;;;;5054378;28;20181;-92
2022/11/01 11:04:14;;;;;;;15.38;2.83;;;16.80;99.90;;;;;;5053841;28;20174;-92
2022/11/01 11:06:41;;;;;;;5.85;2.85;;;16.90;99.90;;;;;;5052838;28;20265;-95
2022/11/01 11:09:17;;;;;;;7.20;3.53;;;16.90;99.90;;;;;;5053149;28;20176;-94
2022/11/01 11:11:45;;;;;;;8.35;2.90;;;16.90;99.90;;;;;;5051823;28;20659;-96
2022/11/01 11:14:13;;;;;;;5.10;2.78;;;16.90;99.90;;;;;;5033644;28;20189;-93
2022/11/01 11:16:50;;;;;;;10.32;3.17;;;17.00;99.90;;;;;;5032716;28;20214;-96
2022/11/01 11:19:28;;;;;;;8.35;3.13;;;17.00;99.90;;;;;;5033095;28;20174;-95
2022/11/01 11:21:55;;;;;;;7.13;2.90;;;17.20;99.90;;;;;;5033463;28;20175;-96
2022/11/01 11:24:42;;;;;;;6.72;2.70;;;17.30;99.90;;;;;;5033233;28;20217;-93
2022/11/01 11:27:20;;;;;;;7.57;3.00;;;17.40;99.90;;;;;;5034106;28;20190;-95
2022/11/01 11:29:51;;;;;;;7.82;2.50;;;17.50;99.90;;;;;;5032998;28;20174;-94
2022/11/01 11:32:24;;;;;;;9.25;3.10;;;17.60;99.90;;;;;;5032839;28;20213;-92
2022/11/01 11:35:00;;;;;;;5.28;2.67;;;17.70;99.90;;;;;;5032930;28;20175;-94
2022/11/01 11:37:30;;;;;;;3.97;2.30;;;17.90;99.90;;;;;;5031638;28;20543;-90
2022/11/01 11:40:18;;;;;;;8.90;2.47;;;17.80;99.90;;;;;;5032677;28;20166;-90
2022/11/01 11:42:44;;;;;;;6.53;2.40;;;17.70;99.90;;;;;;5044382;28;20186;-92
2022/11/01 11:45:21;;;;;;;6.50;2.13;;;17.80;99.90;;;;;;5056849;28;20178;-91
2022/11/01 11:47:47;;;;;;;5.97;2.35;;;17.90;99.90;;;;;;5055958;28;20189;-89
2022/11/01 11:50:18;;;;;;;5.57;2.60;;;18.10;99.90;;;;;;5057009;28;20158;-93
2022/11/01 11:53:07;;;;;;;6.28;2.65;;;18.10;99.90;;;;;;5057159;28;20234;-89
2022/11/01 11:55:40;;;;;;;11.30;2.35;;;18.10;99.90;;;;;;5056147;28;20170;-89
2022/11/01 11:58:17;;;;;;;4.25;2.05;;;18.20;99.90;;;;;;5055148;28;20239;-89
2022/11/01 12:00:47;;;;;;;6.32;2.10;;;18.10;99.90;;;;;;5057528;28;20162;-93
2022/11/01 12:03:16;;;;;;;5.95;2.42;;;18.20;99.90;;;;;;5055939;28;20223;-92
2022/11/01 12:05:54;;;;;;;6.35;2.25;;;18.10;99.90;;;;;;5039525;28;20197;-92
2022/11/01 12:08:36;;;;;;;6.43;2.00;;;17.90;99.90;;;;;;5032447;28;20614;-93
2022/11/01 12:11:04;;;;;;;3.88;1.95;;;17.80;99.90;;;;;;5017284;28;20226;-93
2022/11/01 12:13:36;;;;;;;7.78;2.50;;;17.90;99.90;;;;;;5046724;28;20185;-91
2022/11/01 12:16:06;;;;;;;4.07;2.10;;;18.10;99.90;;;;;;5056527;28;20206;-92
2022/11/01 12:18:32;;;;;;;7.80;2.20;;;18.00;99.90;;;;;;5055486;28;20189;-94
2022/11/01 12:20:58;;;;;;;4.18;1.90;;;17.90;99.90;;;;;;5044267;28;20201;-93
2022/11/01 12:23:23;;;;;;;7.75;2.30;;;17.80;99.90;;;;;;5036256;28;20253;-95
2022/11/01 12:25:50;;;;;;;3.83;1.85;;;17.90;99.90;;;;;;5036707;28;20182;-93
2022/11/01 12:28:15;;;;;;;3.53;1.65;;;18.00;99.90;;;;;;5036288;28;20185;-95
2022/11/01 12:30:43;;;;;;;6.75;1.90;;;18.00;99.90;;;;;;5035590;28;20170;-93
2022/11/01 12:33:22;;;;;;;5.43;1.90;;;18.00;99.90;;;;;;5036455;28;20173;-93
2022/11/01 12:35:50;;;;;;;6.82;1.73;;;17.90;99.90;;;;;;5035356;28;20163;-94
2022/11/01 12:38:37;;;;;;;5.20;1.75;;;17.90;99.90;;;;;;5036441;28;20185;-93
2022/11/01 12:41:36;;;;;;;4.03;1.80;;;18.00;99.90;;;;;;5034974;28;20189;-96
2022/11/01 12:44:38;;;;;;;2.38;1.38;;;18.20;99.90;;;;;;5019816;28;20313;-93
2022/11/01 12:47:26;;;;;;;6.30;1.40;;;18.30;99.90;;;;;;5036378;28;20220;-93
2022/11/01 12:50:00;;;;;;;4.78;1.27;;;18.30;99.90;;;;;;5035082;28;20191;-88
2022/11/01 12:52:33;;;;;;;4.28;0.90;;;18.20;99.90;;;;;;5034841;28;20257;-91
2022/11/01 12:55:28;;;;;;;2.20;1.27;;;18.20;99.90;;;;;;5034070;28;20218;-93
2022/11/01 12:57:54;;;;;;;1.35;0.80;;;18.30;98.30;;;;;;5030603;28;20253;-90
2022/11/01 13:00:20;;;;;;;7.43;1.00;;;18.30;98.30;;;;;;5034440;28;20232;-94